Time;durP1;ratioP1;P1;durP2;ratioP2;P2;SDS_P1;SDS_P2;PMS_P1;PMS_P2;Temp;Humidity;BMP_temperature;BMP_pressure;BME280_temperature;BME280_humidity;BME280_pressure;Samples;Min_cycle;Max_cycle;Signal;HPM_P1;HPM_P2
2021/12/11 00:01:55;;;;;;;0.20;0.10;;;-2.70;99.90;;;;;;20800207;28;20037;-49
2021/12/11 00:12:09;;;;;;;0.28;0.10;;;-2.70;99.90;;;;;;20785118;28;20045;-48
2021/12/11 00:22:15;;;;;;;0.35;0.15;;;-2.60;99.90;;;;;;20813504;28;20526;-49
2021/12/11 00:32:28;;;;;;;0.15;0.10;;;-2.50;99.90;;;;;;20815816;28;20101;-49
2021/12/11 00:42:34;;;;;;;0.28;0.10;;;-2.40;99.90;;;;;;20815455;28;20405;-50
2021/12/11 00:52:51;;;;;;;0.13;0.10;;;-2.40;99.90;;;;;;20813736;28;20095;-48
2021/12/11 01:02:56;;;;;;;0.47;0.10;;;-2.50;99.90;;;;;;20813215;28;20037;-52
2021/12/11 01:13:03;;;;;;;0.50;0.20;;;-2.50;99.90;;;;;;20813148;28;20091;-49
2021/12/11 01:23:27;;;;;;;0.75;0.30;;;-2.70;99.90;;;;;;20811584;28;20874;-49
2021/12/11 01:33:31;;;;;;;1.27;0.22;;;-2.80;99.90;;;;;;20810887;28;20545;-49
2021/12/11 01:43:36;;;;;;;0.55;0.13;;;-2.60;99.90;;;;;;20809844;28;20041;-49
2021/12/11 01:53:47;;;;;;;0.10;0.00;;;-2.70;99.90;;;;;;20809067;28;20079;-48
2021/12/11 02:03:54;;;;;;;0.30;0.03;;;-2.00;99.90;;;;;;20808341;28;20041;-48
2021/12/11 02:14:01;;;;;;;0.40;0.10;;;-1.90;99.90;;;;;;20781558;28;20351;-49
2021/12/11 02:24:09;;;;;;;0.35;0.00;;;-1.80;99.90;;;;;;20725122;28;20694;-52
2021/12/11 02:34:33;;;;;;;0.10;0.10;;;-2.00;99.90;;;;;;20734663;28;20045;-48
2021/12/11 02:44:52;;;;;;;1.30;0.00;;;-1.80;99.90;;;;;;20804625;28;20045;-50
2021/12/11 02:54:58;;;;;;;0.00;0.00;;;-1.60;99.90;;;;;;20804774;28;20068;-51
2021/12/11 03:05:09;;;;;;;0.10;0.00;;;-1.40;99.90;;;;;;20803972;28;20498;-48
2021/12/11 03:15:15;;;;;;;0.10;0.00;;;-1.00;99.90;;;;;;20803063;28;20524;-50
2021/12/11 03:25:23;;;;;;;0.10;0.00;;;-0.90;99.90;;;;;;20802363;28;20033;-49
2021/12/11 03:35:26;;;;;;;0.82;0.10;;;-0.90;99.90;;;;;;20801408;28;20114;-49
2021/12/11 03:45:32;;;;;;;0.20;0.00;;;-1.00;99.90;;;;;;20802179;28;20490;-49
2021/12/11 03:55:42;;;;;;;0.00;0.00;;;-1.20;99.90;;;;;;20801386;28;20045;-48
2021/12/11 04:05:47;;;;;;;0.20;0.20;;;-1.30;99.90;;;;;;20800603;28;20398;-49
2021/12/11 04:15:52;;;;;;;0.00;0.00;;;-1.40;99.90;;;;;;20759590;28;20088;-49
2021/12/11 04:25:57;;;;;;;0.38;0.10;;;-1.30;99.90;;;;;;20720316;28;20041;-50
2021/12/11 04:36:00;;;;;;;0.15;0.00;;;-1.00;99.90;;;;;;20742527;28;20045;-50
2021/12/11 04:46:09;;;;;;;0.20;0.00;;;-1.00;99.90;;;;;;20799565;28;20045;-49
2021/12/11 05:16:36;;;;;;;0.10;0.00;;;-1.20;98.60;;;;;;20813119;28;20068;-49
2021/12/11 05:26:39;;;;;;;0.00;0.00;;;-1.20;99.00;;;;;;20811269;28;20467;-50
2021/12/11 05:36:42;;;;;;;0.20;0.00;;;-1.20;98.80;;;;;;20811306;28;20453;-48
2021/12/11 05:46:47;;;;;;;0.20;0.00;;;-1.20;98.70;;;;;;20809553;28;20037;-49
2021/12/11 05:56:54;;;;;;;0.52;0.00;;;-1.10;98.20;;;;;;20809273;28;20033;-53
2021/12/11 06:06:56;;;;;;;0.05;0.00;;;-1.00;97.30;;;;;;20808504;28;20088;-50
2021/12/11 06:17:01;;;;;;;0.40;0.00;;;-0.80;96.80;;;;;;20806618;28;20445;-51
2021/12/11 06:27:05;;;;;;;0.70;0.00;;;-0.70;96.00;;;;;;20806816;28;20477;-48
2021/12/11 06:37:10;;;;;;;0.00;0.00;;;-0.80;96.10;;;;;;20805770;28;20099;-49
2021/12/11 06:47:14;;;;;;;0.00;0.00;;;-0.80;95.90;;;;;;20805634;28;20470;-49
2021/12/11 06:57:18;;;;;;;0.70;0.00;;;-0.80;95.70;;;;;;20805292;28;20045;-49
2021/12/11 07:07:25;;;;;;;0.20;0.00;;;-0.60;95.40;;;;;;20805873;28;20038;-49
2021/12/11 07:17:28;;;;;;;0.32;0.00;;;-0.60;95.20;;;;;;20803548;28;20395;-50
2021/12/11 07:27:34;;;;;;;0.00;0.00;;;-0.30;95.20;;;;;;20802115;28;20072;-48
2021/12/11 07:37:37;;;;;;;0.00;0.00;;;-0.20;94.30;;;;;;20801528;28;20403;-52
2021/12/11 07:47:40;;;;;;;0.00;0.00;;;0.00;93.70;;;;;;20801228;28;20083;-48
2021/12/11 07:57:43;;;;;;;0.00;0.00;;;0.60;93.90;;;;;;20800374;28;20034;-48
2021/12/11 08:07:47;;;;;;;0.00;0.00;;;1.00;93.00;;;;;;20800221;28;20045;-50
2021/12/11 08:17:54;;;;;;;7.22;0.00;;;1.30;92.00;;;;;;20798730;28;20034;-49
2021/12/11 08:27:59;;;;;;;0.03;0.00;;;1.60;92.10;;;;;;20797941;28;20034;-49
2021/12/11 08:38:04;;;;;;;0.28;0.00;;;1.80;92.30;;;;;;20804578;28;20045;-50
2021/12/11 08:48:06;;;;;;;0.00;0.00;;;1.80;91.90;;;;;;20814798;28;20502;-50
2021/12/11 08:58:12;;;;;;;0.00;0.00;;;1.90;91.30;;;;;;20797018;28;20099;-50
2021/12/11 09:08:43;;;;;;;0.45;0.00;;;2.00;90.40;;;;;;20813418;28;20038;-59
2021/12/11 09:18:50;;;;;;;1.58;0.30;;;2.50;89.50;;;;;;19922307;28;10000330;-57
2021/12/11 09:29:11;;;;;;;0.43;0.10;;;2.80;87.30;;;;;;20810284;28;20046;-58
2021/12/11 09:39:23;;;;;;;0.13;0.07;;;2.50;87.60;;;;;;20809754;28;20053;-56
2021/12/11 09:49:29;;;;;;;0.05;0.00;;;2.60;87.10;;;;;;20810194;28;20029;-57
2021/12/11 09:59:36;;;;;;;0.10;0.00;;;3.30;83.00;;;;;;20809620;28;20056;-56
2021/12/11 10:09:49;;;;;;;0.00;0.00;;;4.00;81.50;;;;;;20808367;28;20555;-58
2021/12/11 10:19:57;;;;;;;0.00;0.00;;;4.80;80.00;;;;;;20805918;28;20378;-58
2021/12/11 10:30:01;;;;;;;0.10;0.00;;;4.90;75.60;;;;;;20807617;28;20099;-64
2021/12/11 10:40:14;;;;;;;0.00;0.00;;;4.50;77.00;;;;;;20789672;28;20045;-56
2021/12/11 10:50:22;;;;;;;0.00;0.00;;;4.50;75.50;;;;;;20804872;28;20118;-58
2021/12/11 11:00:32;;;;;;;0.00;0.00;;;4.30;75.80;;;;;;20803022;28;20494;-58
2021/12/11 11:10:41;;;;;;;0.15;0.00;;;4.70;73.10;;;;;;20803068;28;20321;-58
2021/12/11 11:20:55;;;;;;;;;;;5.60;74.10;;;;;;20804452;28;20068;-59
2021/12/11 11:31:04;;;;;;;0.10;0.00;;;6.00;70.50;;;;;;20818139;28;19909;-57
2021/12/11 11:41:13;;;;;;;0.15;0.00;;;5.60;72.10;;;;;;20800816;28;20053;-56
2021/12/11 11:51:25;;;;;;;0.20;0.00;;;5.80;71.30;;;;;;20800751;28;20041;-58
2021/12/11 12:01:50;;;;;;;0.25;0.00;;;5.60;72.20;;;;;;20800371;28;20037;-56
2021/12/11 12:11:57;;;;;;;0.03;0.00;;;5.30;72.60;;;;;;20805432;28;20095;-56
2021/12/11 12:22:04;;;;;;;0.10;0.00;;;5.20;73.50;;;;;;20816626;28;20064;-56
2021/12/11 12:32:22;;;;;;;0.28;0.00;;;5.10;72.70;;;;;;20799468;28;20491;-54
2021/12/11 12:42:50;;;;;;;0.28;0.00;;;5.20;72.60;;;;;;20814361;28;20057;-56
2021/12/11 12:52:53;;;;;;;0.10;0.05;;;4.90;73.30;;;;;;20813415;28;20045;-53
2021/12/11 13:03:05;;;;;;;0.30;0.00;;;4.60;74.50;;;;;;20813283;28;20042;-58
2021/12/11 13:13:10;;;;;;;0.50;0.00;;;4.10;74.90;;;;;;20813615;28;20041;-59
2021/12/11 13:23:13;;;;;;;0.45;0.10;;;3.70;75.80;;;;;;20810825;28;20379;-58
2021/12/11 13:33:19;;;;;;;0.20;0.05;;;3.50;78.00;;;;;;20794586;28;20060;-57
2021/12/11 13:43:24;;;;;;;0.13;0.10;;;3.00;82.90;;;;;;20809850;28;20423;-59
2021/12/11 13:53:28;;;;;;;0.22;0.10;;;2.80;82.10;;;;;;20810946;28;20037;-56
2021/12/11 14:03:31;;;;;;;0.30;0.10;;;2.50;82.40;;;;;;20793008;28;20131;-51
2021/12/11 14:13:35;;;;;;;0.77;0.20;;;2.20;83.70;;;;;;20808102;28;20045;-55
2021/12/11 14:23:40;;;;;;;0.20;0.10;;;2.00;85.20;;;;;;20807198;28;20041;-55
2021/12/11 14:33:45;;;;;;;0.25;0.10;;;1.70;86.40;;;;;;20805061;28;20371;-51
2021/12/11 14:43:49;;;;;;;0.52;0.10;;;1.50;87.10;;;;;;20805745;28;20115;-50
2021/12/11 14:53:51;;;;;;;0.30;0.20;;;1.30;88.80;;;;;;20805202;28;20052;-51
2021/12/11 15:03:56;;;;;;;0.47;0.10;;;0.70;90.50;;;;;;20804427;28;20037;-50
2021/12/11 15:14:00;;;;;;;1.15;0.52;;;-0.20;92.90;;;;;;20777080;28;20064;-50
2021/12/11 15:24:05;;;;;;;0.13;0.08;;;-1.10;95.60;;;;;;20721316;28;20038;-50
2021/12/11 15:34:13;;;;;;;0.32;0.10;;;-1.70;97.70;;;;;;20729807;28;20041;-49
2021/12/11 15:44:18;;;;;;;0.35;0.10;;;-2.10;98.50;;;;;;20801383;28;20045;-49
2021/12/11 15:54:21;;;;;;;0.10;0.00;;;-2.40;99.30;;;;;;20801237;28;20033;-49
2021/12/11 16:04:28;;;;;;;0.20;0.10;;;-2.50;99.90;;;;;;20800915;28;20030;-49
2021/12/11 16:14:31;;;;;;;0.32;0.10;;;-2.50;99.90;;;;;;20800124;28;20099;-50
2021/12/11 16:24:37;;;;;;;0.70;0.10;;;-2.40;99.60;;;;;;20799714;28;20191;-49
2021/12/11 16:34:42;;;;;;;0.00;0.00;;;-1.60;97.50;;;;;;20799160;28;20045;-50
2021/12/11 16:44:44;;;;;;;0.00;0.00;;;-0.80;94.60;;;;;;20799228;28;20041;-49
2021/12/11 16:54:47;;;;;;;0.28;0.10;;;0.00;93.00;;;;;;20799260;28;20037;-49
2021/12/11 17:04:51;;;;;;;0.30;0.00;;;0.10;91.90;;;;;;20812793;28;20068;-49
2021/12/11 17:14:59;;;;;;;0.00;0.00;;;0.20;91.80;;;;;;20779132;28;20072;-52
2021/12/11 17:25:05;;;;;;;0.20;0.00;;;0.20;91.40;;;;;;20730242;28;20394;-50
2021/12/11 17:35:10;;;;;;;0.00;0.00;;;-0.30;91.70;;;;;;20730849;28;20552;-49
2021/12/11 17:45:17;;;;;;;0.08;0.00;;;-0.10;91.40;;;;;;20795711;28;20163;-49
2021/12/11 17:55:28;;;;;;;0.30;0.00;;;0.10;90.70;;;;;;20793511;28;20091;-49
2021/12/11 18:05:38;;;;;;;0.00;0.00;;;0.20;90.70;;;;;;20806955;28;20037;-50
2021/12/11 18:15:50;;;;;;;0.32;0.10;;;0.10;89.40;;;;;;20808099;28;20433;-54
2021/12/11 18:25:54;;;;;;;;;;;0.20;88.90;;;;;;20807828;28;20091;-49
2021/12/11 18:36:11;;;;;;;0.10;0.00;;;0.10;88.40;;;;;;20806005;28;19920;-49
2021/12/11 18:46:20;;;;;;;0.25;0.00;;;0.00;88.10;;;;;;20805784;28;20071;-52
2021/12/11 18:56:24;;;;;;;0.10;0.00;;;0.20;86.70;;;;;;20804612;28;20087;-49
2021/12/11 19:06:33;;;;;;;0.63;0.10;;;0.00;87.40;;;;;;20773516;28;20100;-57
2021/12/11 19:16:36;;;;;;;0.17;0.05;;;-0.10;86.60;;;;;;20771115;28;20068;-57
2021/12/11 19:26:42;;;;;;;0.03;0.00;;;-0.10;86.10;;;;;;20782436;28;20037;-60
2021/12/11 19:36:47;;;;;;;0.10;0.00;;;-0.20;86.10;;;;;;20802019;28;20123;-59
2021/12/11 19:46:50;;;;;;;0.28;0.10;;;-0.40;87.10;;;;;;20801034;28;20037;-58
2021/12/11 19:56:59;;;;;;;0.60;0.10;;;-0.70;87.30;;;;;;20778635;28;20041;-63
2021/12/11 20:07:03;;;;;;;1.08;0.00;;;-0.60;87.10;;;;;;20702315;28;20038;-61
2021/12/11 20:17:06;;;;;;;0.20;0.00;;;-0.60;86.10;;;;;;20718449;28;20122;-55
2021/12/11 20:27:11;;;;;;;0.20;0.00;;;-0.90;86.40;;;;;;20652575;28;20034;-53
2021/12/11 20:37:18;;;;;;;0.10;0.00;;;-0.90;87.20;;;;;;20744940;28;20556;-58
2021/12/11 20:47:23;;;;;;;0.43;0.10;;;-0.90;86.70;;;;;;20813889;28;20042;-53
2021/12/11 20:57:30;;;;;;;0.43;0.10;;;-0.90;86.10;;;;;;20771569;28;20058;-56
2021/12/11 21:07:38;;;;;;;0.20;0.00;;;-0.80;85.20;;;;;;20650826;28;20255;-57
2021/12/11 21:17:42;;;;;;;0.10;0.00;;;-0.60;83.90;;;;;;20794397;28;20041;-59
2021/12/11 21:27:49;;;;;;;0.28;0.00;;;-1.10;86.40;;;;;;20810857;28;20041;-58
2021/12/11 21:37:57;;;;;;;1.90;0.05;;;-1.00;85.60;;;;;;20717165;28;20419;-57
2021/12/11 21:48:12;;;;;;;0.10;0.00;;;-0.60;85.20;;;;;;20712640;28;20494;-56
2021/12/11 21:58:20;;;;;;;0.00;0.00;;;-1.00;86.30;;;;;;20727690;28;20470;-54
2021/12/11 22:08:23;;;;;;;0.57;0.00;;;-1.20;86.60;;;;;;20800852;28;20033;-55
2021/12/11 22:18:27;;;;;;;0.10;0.00;;;-1.00;87.10;;;;;;20807016;28;20548;-59
2021/12/11 22:28:31;;;;;;;0.00;0.00;;;-1.10;86.80;;;;;;20806328;28;20038;-54
2021/12/11 22:38:38;;;;;;;0.22;0.00;;;-1.40;86.80;;;;;;20805586;28;20053;-59
2021/12/11 22:48:43;;;;;;;0.10;0.00;;;-1.30;87.20;;;;;;20806044;28;20099;-58
2021/12/11 22:58:54;;;;;;;0.45;0.08;;;-0.80;85.80;;;;;;20803565;28;20045;-56
2021/12/11 23:09:00;;;;;;;;;;;-1.00;86.10;;;;;;20804432;28;20034;-54
2021/12/11 23:19:22;;;;;;;0.20;0.10;;;-1.10;87.60;;;;;;20688382;28;19918;-59
2021/12/11 23:29:33;;;;;;;0.15;0.00;;;-0.90;86.80;;;;;;20655968;28;20381;-59
2021/12/11 23:39:43;;;;;;;0.00;0.00;;;-0.70;85.30;;;;;;20757165;28;20103;-56
2021/12/11 23:49:48;;;;;;;0.10;0.00;;;-0.80;85.50;;;;;;20801489;28;20034;-58
